createdAt,value
2022-12-08T00:02:14.015Z,15.60
2022-12-08T00:05:20.073Z,13.55
2022-12-08T00:08:27.878Z,12.63
2022-12-08T00:11:16.480Z,11.85
2022-12-08T00:14:04.114Z,14.82
2022-12-08T00:16:52.016Z,13.45
2022-12-08T00:19:40.450Z,14.23
2022-12-08T00:22:29.420Z,15.38
2022-12-08T00:25:19.717Z,16.70
2022-12-08T00:28:07.405Z,14.57
2022-12-08T00:30:54.979Z,22.48
2022-12-08T00:33:42.698Z,16.55
2022-12-08T00:36:30.955Z,15.15
2022-12-08T00:39:18.797Z,13.93
2022-12-08T00:42:12.347Z,12.23
2022-12-08T00:45:00.001Z,14.18
2022-12-08T00:47:47.717Z,14.25
2022-12-08T00:50:35.981Z,14.18
2022-12-08T00:53:23.842Z,14.52
2022-12-08T00:56:11.605Z,12.50
2022-12-08T00:58:59.712Z,13.88
2022-12-08T01:01:48.092Z,14.23
2022-12-08T01:04:35.691Z,13.77
2022-12-08T01:07:23.224Z,17.00
2022-12-08T01:10:10.995Z,15.93
2022-12-08T01:13:17.480Z,14.70
2022-12-08T01:16:05.853Z,13.65
2022-12-08T01:18:54.205Z,15.35
2022-12-08T01:21:43.108Z,14.60
2022-12-08T01:24:30.765Z,13.98
2022-12-08T01:27:18.457Z,11.50
2022-12-08T01:30:07.307Z,13.65
2022-12-08T01:32:55.231Z,13.93
2022-12-08T01:35:42.926Z,14.85
2022-12-08T01:38:30.935Z,17.13
2022-12-08T01:41:22.058Z,13.65
2022-12-08T01:44:11.021Z,13.80
2022-12-08T01:46:58.718Z,14.63
2022-12-08T01:49:47.692Z,14.88
2022-12-08T01:52:46.967Z,14.48
2022-12-08T01:55:44.267Z,14.00
2022-12-08T01:58:49.814Z,13.20
2022-12-08T02:01:37.747Z,14.05
2022-12-08T02:04:25.593Z,14.68
2022-12-08T02:07:16.679Z,12.23
2022-12-08T02:10:06.040Z,13.60
2022-12-08T02:12:56.488Z,13.15
2022-12-08T02:16:48.655Z,14.35
2022-12-08T02:20:04.336Z,12.45
2022-12-08T02:23:18.384Z,16.35
2022-12-08T02:26:34.587Z,14.68
2022-12-08T02:29:59.521Z,14.93
2022-12-08T02:32:49.993Z,16.42
2022-12-08T02:36:03.406Z,15.40
2022-12-08T02:39:11.153Z,15.25
2022-12-08T02:42:17.290Z,15.80
2022-12-08T02:45:09.132Z,18.98
2022-12-08T02:47:59.089Z,18.30
2022-12-08T02:50:46.755Z,17.05
2022-12-08T02:53:37.093Z,16.02
2022-12-08T02:56:36.761Z,15.02
2022-12-08T02:59:41.596Z,14.23
2022-12-08T03:02:38.173Z,12.57
2022-12-08T03:05:47.625Z,12.27
2022-12-08T03:09:06.013Z,11.90
2022-12-08T03:12:01.602Z,12.30
2022-12-08T03:14:53.732Z,12.40
2022-12-08T03:17:46.543Z,12.45
2022-12-08T03:20:35.498Z,10.85
2022-12-08T03:23:25.009Z,12.10
2022-12-08T03:26:19.693Z,12.02
2022-12-08T03:29:07.858Z,10.70
2022-12-08T03:31:59.459Z,11.25
2022-12-08T03:34:50.812Z,11.40
2022-12-08T03:37:40.550Z,12.90
2022-12-08T03:40:28.194Z,11.93
2022-12-08T03:43:15.817Z,11.00
2022-12-08T03:46:03.439Z,10.20
2022-12-08T03:48:51.321Z,9.68
2022-12-08T03:51:39.142Z,10.70
2022-12-08T03:54:29.894Z,9.32
2022-12-08T03:57:17.570Z,8.75
2022-12-08T04:00:08.453Z,12.82
2022-12-08T04:02:59.155Z,11.15
2022-12-08T04:05:47.108Z,9.68
2022-12-08T04:08:35.297Z,13.43
2022-12-08T04:11:23.104Z,12.65
2022-12-08T04:14:10.912Z,11.57
2022-12-08T04:16:58.623Z,13.38
2022-12-08T04:19:46.200Z,12.20
2022-12-08T04:22:33.846Z,12.38
2022-12-08T04:25:21.773Z,12.10
2022-12-08T04:28:09.478Z,14.95
2022-12-08T04:30:57.544Z,13.25
2022-12-08T04:33:45.570Z,10.43
2022-12-08T04:36:33.206Z,9.90
2022-12-08T04:39:20.768Z,12.18
2022-12-08T04:42:08.497Z,10.60
2022-12-08T04:44:56.174Z,11.05
2022-12-08T04:47:46.299Z,12.15
2022-12-08T04:50:34.076Z,13.18
2022-12-08T04:53:21.830Z,9.80
2022-12-08T04:56:16.989Z,13.52
2022-12-08T04:59:07.000Z,10.77
2022-12-08T05:01:54.908Z,10.10
2022-12-08T05:04:45.943Z,11.40
2022-12-08T05:07:33.715Z,10.15
2022-12-08T05:10:21.416Z,10.55
2022-12-08T05:13:09.173Z,10.38
2022-12-08T05:16:10.100Z,8.80
2022-12-08T05:18:57.821Z,11.15
2022-12-08T05:21:46.029Z,9.10
2022-12-08T05:24:33.890Z,8.57
2022-12-08T05:27:21.457Z,17.60
2022-12-08T05:30:09.270Z,20.02
2022-12-08T05:32:56.869Z,16.80
2022-12-08T05:35:44.663Z,15.93
2022-12-08T05:38:32.413Z,11.45
2022-12-08T05:41:21.549Z,13.25
2022-12-08T05:44:09.518Z,11.05
2022-12-08T05:46:57.066Z,11.02
2022-12-08T05:49:45.204Z,10.82
2022-12-08T05:52:32.969Z,9.88
2022-12-08T05:55:20.605Z,10.50
2022-12-08T05:58:16.030Z,11.50
2022-12-08T06:01:03.832Z,10.43
2022-12-08T06:03:52.838Z,10.75
2022-12-08T06:06:40.531Z,12.63
2022-12-08T06:09:28.315Z,14.57
2022-12-08T06:12:16.446Z,14.82
2022-12-08T06:15:04.503Z,12.20
2022-12-08T06:17:52.220Z,12.93
2022-12-08T06:20:39.866Z,10.88
2022-12-08T06:23:27.574Z,9.77
2022-12-08T06:26:16.345Z,10.32
2022-12-08T06:29:05.197Z,12.05
2022-12-08T06:31:53.233Z,11.32
2022-12-08T06:34:41.120Z,11.00
2022-12-08T06:37:29.036Z,11.25
2022-12-08T06:40:16.774Z,12.02
2022-12-08T06:43:04.515Z,12.07
2022-12-08T06:45:52.907Z,10.32
2022-12-08T06:48:40.840Z,11.55
2022-12-08T06:51:28.355Z,11.88
2022-12-08T06:54:16.032Z,12.48
2022-12-08T06:57:04.824Z,12.05
2022-12-08T06:59:52.572Z,11.68
2022-12-08T07:02:42.739Z,11.45
2022-12-08T07:05:30.429Z,10.00
2022-12-08T07:08:18.285Z,10.68
2022-12-08T07:11:12.424Z,10.82
2022-12-08T07:14:03.082Z,10.45
2022-12-08T07:16:51.761Z,12.15
2022-12-08T07:19:41.971Z,10.10
2022-12-08T07:22:29.614Z,11.10
2022-12-08T07:25:18.031Z,10.52
2022-12-08T07:28:12.689Z,11.70
2022-12-08T07:31:00.845Z,11.95
2022-12-08T07:33:49.010Z,12.43
2022-12-08T07:36:36.871Z,13.82
2022-12-08T07:39:24.589Z,13.38
2022-12-08T07:42:12.346Z,14.02
2022-12-08T07:45:01.053Z,11.93
2022-12-08T07:47:48.642Z,11.23
2022-12-08T07:50:36.509Z,12.48
2022-12-08T07:53:24.192Z,12.63
2022-12-08T07:56:13.847Z,11.13
2022-12-08T07:59:01.716Z,12.10
2022-12-08T08:02:11.723Z,11.50
2022-12-08T08:04:58.634Z,10.65
2022-12-08T08:07:48.554Z,10.23
2022-12-08T08:10:36.389Z,10.13
2022-12-08T08:13:24.150Z,10.57
2022-12-08T08:16:13.915Z,10.73
2022-12-08T08:19:01.711Z,9.32
2022-12-08T08:21:50.297Z,10.25
2022-12-08T08:24:43.136Z,11.13
2022-12-08T08:27:33.307Z,13.43
2022-12-08T08:30:21.386Z,10.43
2022-12-08T08:33:09.022Z,10.60
2022-12-08T08:35:57.964Z,11.25
2022-12-08T08:38:45.631Z,10.18
2022-12-08T08:41:33.563Z,14.35
2022-12-08T08:44:21.131Z,13.95
2022-12-08T08:47:09.997Z,13.30
2022-12-08T08:49:57.681Z,12.05
2022-12-08T08:52:45.355Z,11.25
2022-12-08T08:55:33.001Z,10.18
2022-12-08T08:58:20.783Z,11.98
2022-12-08T09:01:08.748Z,12.07
2022-12-08T09:03:57.233Z,12.20
2022-12-08T09:06:45.528Z,12.00
2022-12-08T09:09:33.167Z,8.68
2022-12-08T09:12:22.396Z,10.93
2022-12-08T09:15:10.657Z,11.10
2022-12-08T09:17:58.293Z,11.32
2022-12-08T09:20:47.070Z,10.65
2022-12-08T09:23:35.988Z,13.32
2022-12-08T09:26:25.463Z,9.98
2022-12-08T09:29:14.762Z,9.35
2022-12-08T09:32:03.388Z,10.13
2022-12-08T09:35:01.958Z,11.05
2022-12-08T09:37:58.344Z,11.90
2022-12-08T09:41:26.583Z,13.15
2022-12-08T09:44:35.365Z,13.88
2022-12-08T09:47:36.547Z,12.80
2022-12-08T09:50:31.010Z,11.55
2022-12-08T09:53:27.378Z,11.32
2022-12-08T09:56:22.832Z,12.13
2022-12-08T09:59:34.587Z,14.45
2022-12-08T10:02:28.739Z,10.80
2022-12-08T10:05:16.494Z,13.80
2022-12-08T10:08:12.665Z,15.68
2022-12-08T10:11:11.172Z,14.27
2022-12-08T10:14:19.478Z,11.90
2022-12-08T10:17:13.369Z,20.08
2022-12-08T10:20:22.705Z,14.43
2022-12-08T10:23:13.441Z,12.13
2022-12-08T10:26:06.905Z,10.95
2022-12-08T10:28:57.620Z,12.48
2022-12-08T10:31:45.502Z,10.73
2022-12-08T10:34:33.143Z,11.45
2022-12-08T10:37:20.828Z,11.60
2022-12-08T10:40:18.317Z,18.27
2022-12-08T10:43:07.248Z,14.90
2022-12-08T10:45:55.143Z,14.55
2022-12-08T10:49:09.139Z,12.25
2022-12-08T10:51:58.075Z,13.27
2022-12-08T10:54:45.681Z,10.98
2022-12-08T10:57:39.004Z,13.10
2022-12-08T11:00:29.152Z,13.10
2022-12-08T11:03:26.833Z,14.38
2022-12-08T11:06:20.124Z,15.57
2022-12-08T11:09:33.595Z,14.77
2022-12-08T11:12:23.079Z,16.05
2022-12-08T11:15:17.649Z,13.70
2022-12-08T11:18:20.843Z,15.75
2022-12-08T11:21:13.993Z,14.52
2022-12-08T11:24:21.038Z,16.25
2022-12-08T11:27:09.357Z,14.20
2022-12-08T11:29:57.254Z,14.60
2022-12-08T11:32:47.872Z,14.40
2022-12-08T11:35:40.474Z,14.88
2022-12-08T11:38:29.258Z,15.57
2022-12-08T11:41:19.373Z,14.80
2022-12-08T11:44:30.935Z,14.23
2022-12-08T11:47:28.677Z,14.82
2022-12-08T11:50:49.734Z,14.77
2022-12-08T11:54:11.338Z,13.13
2022-12-08T11:57:01.826Z,16.70
2022-12-08T11:59:52.409Z,15.45
2022-12-08T12:02:44.998Z,16.88
2022-12-08T12:08:57.713Z,18.13
2022-12-08T12:12:33.667Z,19.98
2022-12-08T12:15:38.801Z,18.02
2022-12-08T12:18:40.519Z,16.23
2022-12-08T12:21:42.142Z,18.27
2022-12-08T12:24:37.019Z,15.40
2022-12-08T12:27:39.376Z,15.15
2022-12-08T12:30:31.862Z,15.68
2022-12-08T12:33:20.817Z,15.13
2022-12-08T12:36:11.084Z,15.43
2022-12-08T12:39:07.956Z,15.90
2022-12-08T12:42:01.551Z,17.85
2022-12-08T12:45:16.362Z,16.30
2022-12-08T12:48:04.258Z,17.48
2022-12-08T12:50:52.508Z,17.17
2022-12-08T12:53:40.124Z,18.52
2022-12-08T12:56:47.231Z,17.63
2022-12-08T13:00:01.053Z,14.98
2022-12-08T13:02:51.239Z,17.23
2022-12-08T13:05:50.809Z,17.15
2022-12-08T13:08:56.501Z,18.85
2022-12-08T13:11:57.556Z,15.85
2022-12-08T13:14:49.381Z,17.50
2022-12-08T13:17:38.765Z,15.20
2022-12-08T13:20:26.820Z,13.57
2022-12-08T13:23:43.757Z,14.60
2022-12-08T13:26:31.412Z,15.98
2022-12-08T13:29:26.786Z,17.95
2022-12-08T13:32:14.302Z,15.52
2022-12-08T13:35:04.576Z,14.50
2022-12-08T13:37:55.133Z,15.40
2022-12-08T13:40:44.242Z,16.52
2022-12-08T13:43:51.363Z,13.65
2022-12-08T13:47:31.687Z,16.58
2022-12-08T13:57:08.596Z,11.50
2022-12-08T14:00:04.866Z,17.50
2022-12-08T14:03:02.073Z,19.33
2022-12-08T14:06:19.210Z,21.42
2022-12-08T14:09:10.080Z,14.73
2022-12-08T14:12:03.751Z,14.05
2022-12-08T14:15:03.331Z,15.32
2022-12-08T14:17:53.603Z,14.80
2022-12-08T14:21:12.258Z,14.73
2022-12-08T14:23:49.321Z,14.52
2022-12-08T14:26:36.968Z,17.67
2022-12-08T14:29:39.012Z,14.80
2022-12-08T14:32:42.899Z,14.43
2022-12-08T14:35:35.900Z,15.07
2022-12-08T14:38:25.943Z,15.45
2022-12-08T14:41:13.809Z,15.98
2022-12-08T14:44:02.670Z,17.73
2022-12-08T14:47:09.703Z,18.50
2022-12-08T14:49:58.373Z,18.10
2022-12-08T14:52:46.093Z,15.23
2022-12-08T14:55:37.898Z,17.90
2022-12-08T14:58:29.200Z,14.60
2022-12-08T15:01:23.954Z,17.13
2022-12-08T15:04:15.038Z,17.00
2022-12-08T15:07:12.321Z,16.85
2022-12-08T15:10:16.676Z,16.02
2022-12-08T15:13:06.106Z,20.30
2022-12-08T15:15:56.535Z,19.15
2022-12-08T15:18:44.184Z,16.42
2022-12-08T15:21:37.527Z,16.90
2022-12-08T15:24:29.435Z,17.05
2022-12-08T15:27:19.794Z,19.63
2022-12-08T15:30:13.240Z,22.00
2022-12-08T15:33:00.872Z,18.02
2022-12-08T15:35:50.115Z,17.77
2022-12-08T15:38:39.373Z,14.85
2022-12-08T15:41:27.026Z,14.68
2022-12-08T15:44:14.711Z,14.85
2022-12-08T15:47:02.690Z,14.57
2022-12-08T15:49:52.781Z,16.67
2022-12-08T15:52:40.556Z,14.38
2022-12-08T15:55:28.306Z,13.80
2022-12-08T16:01:33.830Z,15.40
2022-12-08T16:07:30.930Z,22.00
2022-12-08T16:10:22.272Z,21.95
2022-12-08T16:16:45.033Z,16.95
2022-12-08T16:19:32.697Z,16.27
2022-12-08T16:25:46.294Z,17.77
2022-12-08T16:28:54.063Z,12.52
2022-12-08T16:31:42.357Z,12.98
2022-12-08T16:34:29.959Z,10.75
2022-12-08T16:37:19.436Z,12.18
2022-12-08T16:40:13.200Z,12.60
2022-12-08T16:43:01.014Z,12.73
2022-12-08T16:45:48.817Z,13.48
2022-12-08T16:48:36.494Z,14.60
2022-12-08T16:51:27.090Z,16.13
2022-12-08T16:54:15.263Z,14.75
2022-12-08T16:57:02.940Z,17.45
2022-12-08T16:59:50.592Z,18.75
2022-12-08T17:02:38.619Z,15.18
2022-12-08T17:05:27.321Z,15.35
2022-12-08T17:08:15.307Z,16.88
2022-12-08T17:11:08.963Z,13.63
2022-12-08T17:14:00.259Z,15.45
2022-12-08T17:16:47.852Z,14.45
2022-12-08T17:19:35.838Z,15.13
2022-12-08T17:22:25.909Z,18.08
2022-12-08T17:25:13.934Z,15.32
2022-12-08T17:28:01.613Z,19.30
2022-12-08T17:30:49.350Z,15.80
2022-12-08T17:33:36.974Z,14.80
2022-12-08T17:36:24.644Z,15.75
2022-12-08T17:39:18.278Z,15.98
2022-12-08T17:42:07.323Z,18.90
2022-12-08T17:44:55.246Z,19.67
2022-12-08T17:47:43.069Z,18.33
2022-12-08T17:50:30.750Z,18.58
2022-12-08T17:53:18.651Z,14.20
2022-12-08T17:56:11.237Z,16.95
2022-12-08T17:59:03.497Z,18.05
2022-12-08T18:01:55.788Z,15.65
2022-12-08T18:04:43.771Z,15.50
2022-12-08T18:07:32.468Z,14.00
2022-12-08T18:10:20.464Z,15.57
2022-12-08T18:13:08.940Z,16.33
2022-12-08T18:15:56.670Z,14.90
2022-12-08T18:18:44.462Z,18.17
2022-12-08T18:21:33.893Z,15.43
2022-12-08T18:24:23.540Z,26.20
2022-12-08T18:27:11.128Z,20.80
2022-12-08T18:29:59.109Z,17.58
2022-12-08T18:32:46.969Z,15.75
2022-12-08T18:35:34.877Z,16.27
2022-12-08T18:38:22.602Z,15.60
2022-12-08T18:41:20.258Z,15.70
2022-12-08T18:44:10.195Z,14.07
2022-12-08T18:46:57.872Z,15.55
2022-12-08T18:49:45.660Z,15.00
2022-12-08T18:52:33.678Z,15.93
2022-12-08T18:55:21.547Z,14.70
2022-12-08T18:58:11.112Z,13.18
2022-12-08T19:00:59.001Z,14.55
2022-12-08T19:04:27.364Z,25.48
2022-12-08T19:07:00.075Z,16.85
2022-12-08T19:09:47.737Z,17.40
2022-12-08T19:12:35.470Z,15.02
2022-12-08T19:15:25.790Z,12.52
2022-12-08T19:18:13.508Z,10.98
2022-12-08T19:21:02.075Z,11.32
2022-12-08T19:23:51.796Z,12.02
2022-12-08T19:26:39.767Z,12.10
2022-12-08T19:29:29.823Z,12.90
2022-12-08T19:32:20.022Z,14.18
2022-12-08T19:35:10.190Z,11.70
2022-12-08T19:37:57.985Z,11.07
2022-12-08T19:41:04.047Z,9.88
2022-12-08T19:44:10.163Z,10.18
2022-12-08T19:46:57.907Z,10.25
2022-12-08T19:49:45.792Z,12.70
2022-12-08T19:52:33.696Z,10.05
2022-12-08T19:55:21.380Z,11.43
2022-12-08T19:58:09.788Z,8.80
2022-12-08T20:00:57.396Z,9.70
2022-12-08T20:03:45.085Z,10.07
2022-12-08T20:06:35.827Z,10.40
2022-12-08T20:09:26.622Z,9.48
2022-12-08T20:12:14.879Z,9.70
2022-12-08T20:15:02.813Z,12.77
2022-12-08T20:17:50.535Z,11.68
2022-12-08T20:20:39.455Z,11.60
2022-12-08T20:23:27.162Z,13.63
2022-12-08T20:26:14.757Z,10.82
2022-12-08T20:29:02.512Z,12.90
2022-12-08T20:31:50.556Z,10.30
2022-12-08T20:34:38.401Z,9.27
2022-12-08T20:37:26.207Z,10.95
2022-12-08T20:40:14.333Z,8.15
2022-12-08T20:43:02.692Z,8.13
2022-12-08T20:45:53.432Z,8.98
2022-12-08T20:48:41.558Z,12.95
2022-12-08T20:51:33.073Z,12.43
2022-12-08T20:54:29.229Z,9.95
2022-12-08T20:57:20.412Z,9.95
2022-12-08T21:00:34.486Z,9.85
2022-12-08T21:03:25.456Z,11.52
2022-12-08T21:06:13.815Z,12.75
2022-12-08T21:09:01.679Z,12.18
2022-12-08T21:11:49.532Z,11.82
2022-12-08T21:14:37.372Z,10.68
2022-12-08T21:17:25.517Z,8.85
2022-12-08T21:20:13.392Z,7.47
2022-12-08T21:23:07.831Z,9.18
2022-12-08T21:29:20.305Z,9.75
2022-12-08T21:32:08.363Z,10.23
2022-12-08T21:34:56.113Z,8.90
2022-12-08T21:37:43.857Z,9.73
2022-12-08T21:40:31.516Z,10.18
2022-12-08T21:43:19.134Z,9.75
2022-12-08T21:46:14.196Z,7.13
2022-12-08T21:49:02.479Z,7.40
2022-12-08T21:51:52.536Z,7.03
2022-12-08T21:54:40.301Z,7.32
2022-12-08T21:57:28.508Z,7.35
2022-12-08T22:00:17.060Z,8.27
2022-12-08T22:03:05.714Z,10.75
2022-12-08T22:06:13.825Z,7.60
2022-12-08T22:09:13.526Z,8.10
2022-12-08T22:12:02.101Z,8.38
2022-12-08T22:14:51.154Z,7.22
2022-12-08T22:17:43.537Z,8.95
2022-12-08T22:20:31.455Z,7.35
2022-12-08T22:23:19.898Z,7.45
2022-12-08T22:26:08.293Z,6.95
2022-12-08T22:28:55.917Z,7.90
2022-12-08T22:31:43.850Z,7.07
2022-12-08T22:34:31.512Z,7.47
2022-12-08T22:37:19.153Z,8.27
2022-12-08T22:40:07.683Z,7.35
2022-12-08T22:42:55.515Z,8.48
2022-12-08T22:45:44.708Z,7.22
2022-12-08T22:48:32.847Z,9.00
2022-12-08T22:51:20.832Z,7.03
2022-12-08T22:54:11.288Z,8.55
2022-12-08T22:56:58.893Z,7.38
2022-12-08T22:59:46.659Z,6.63
2022-12-08T23:02:34.433Z,6.88
2022-12-08T23:05:22.449Z,5.35
2022-12-08T23:08:15.948Z,5.78
2022-12-08T23:11:03.794Z,6.80
2022-12-08T23:13:51.691Z,6.63
2022-12-08T23:16:39.420Z,6.30
2022-12-08T23:19:30.592Z,6.63
2022-12-08T23:22:18.609Z,5.57
2022-12-08T23:25:07.051Z,5.15
2022-12-08T23:27:55.217Z,6.88
2022-12-08T23:30:43.101Z,6.05
2022-12-08T23:33:31.846Z,6.40
2022-12-08T23:36:21.063Z,6.78
2022-12-08T23:39:09.165Z,6.25
2022-12-08T23:41:59.992Z,5.97
2022-12-08T23:44:47.708Z,5.35
2022-12-08T23:47:35.931Z,5.80
2022-12-08T23:50:23.546Z,6.78
2022-12-08T23:53:11.214Z,6.82
2022-12-08T23:56:04.676Z,5.72
2022-12-08T23:58:52.434Z,5.72
